sensor_id;sensor_type;location;lat;lon;timestamp;pressure;altitude;pressure_sealevel;temperature;humidity
68329;BME280;55182;56.864;60.554;2023-06-22T00:00:54;74461.25;;;-143.60;97.98
68329;BME280;55182;56.864;60.554;2023-06-22T00:03:20;74469.28;;;-143.60;97.93
68329;BME280;55182;56.864;60.554;2023-06-22T00:05:46;74465.25;;;-143.60;98.06
68329;BME280;55182;56.864;60.554;2023-06-22T00:08:12;74447.19;;;-143.60;97.96
68329;BME280;55182;56.864;60.554;2023-06-22T00:10:37;74445.19;;;-143.60;98.01
68329;BME280;55182;56.864;60.554;2023-06-22T00:13:03;74431.13;;;-143.60;97.78
68329;BME280;55182;56.864;60.554;2023-06-22T00:15:29;74411.03;;;-143.60;97.19
68329;BME280;55182;56.864;60.554;2023-06-22T00:17:54;74396.97;;;-143.60;96.61
68329;BME280;55182;56.864;60.554;2023-06-22T00:20:19;74384.91;;;-143.60;95.80
68329;BME280;55182;56.864;60.554;2023-06-22T00:22:45;74378.91;;;-143.60;95.21
68329;BME280;55182;56.864;60.554;2023-06-22T00:25:11;74382.91;;;-143.60;94.80
68329;BME280;55182;56.864;60.554;2023-06-22T00:27:36;74382.91;;;-143.60;94.63
68329;BME280;55182;56.864;60.554;2023-06-22T00:30:22;74378.91;;;-143.60;94.34
68329;BME280;55182;56.864;60.554;2023-06-22T00:32:47;74384.91;;;-143.60;93.89
68329;BME280;55182;56.864;60.554;2023-06-22T00:35:13;74382.91;;;-143.60;93.96
68329;BME280;55182;56.864;60.554;2023-06-22T00:37:39;74392.94;;;-143.60;94.01
68329;BME280;55182;56.864;60.554;2023-06-22T00:40:04;74396.97;;;-143.60;94.15
68329;BME280;55182;56.864;60.554;2023-06-22T00:42:30;74398.97;;;-143.60;94.14
68329;BME280;55182;56.864;60.554;2023-06-22T00:44:56;74398.97;;;-143.60;94.09
68329;BME280;55182;56.864;60.554;2023-06-22T00:47:23;74407.00;;;-143.60;94.14
68329;BME280;55182;56.864;60.554;2023-06-22T00:49:49;74409.03;;;-143.60;94.17
68329;BME280;55182;56.864;60.554;2023-06-22T00:52:16;74398.97;;;-143.60;94.46
68329;BME280;55182;56.864;60.554;2023-06-22T00:54:42;74394.97;;;-143.60;94.44
68329;BME280;55182;56.864;60.554;2023-06-22T00:57:08;74392.94;;;-143.60;94.11
68329;BME280;55182;56.864;60.554;2023-06-22T00:59:34;74384.91;;;-143.60;93.53
68329;BME280;55182;56.864;60.554;2023-06-22T01:02:01;74380.91;;;-143.60;93.32
68329;BME280;55182;56.864;60.554;2023-06-22T01:04:34;74370.84;;;-143.60;92.84
68329;BME280;55182;56.864;60.554;2023-06-22T01:07:25;74358.81;;;-143.60;92.50
68329;BME280;55182;56.864;60.554;2023-06-22T01:10:07;74350.78;;;-143.60;92.04
68329;BME280;55182;56.864;60.554;2023-06-22T01:12:33;74344.75;;;-143.60;91.50
68329;BME280;55182;56.864;60.554;2023-06-22T01:15:10;74336.72;;;-143.60;91.28
68329;BME280;55182;56.864;60.554;2023-06-22T01:17:39;74330.69;;;-143.60;90.84
68329;BME280;55182;56.864;60.554;2023-06-22T01:20:09;74320.66;;;-143.60;90.55
68329;BME280;55182;56.864;60.554;2023-06-22T01:22:46;74318.63;;;-143.60;90.12
68329;BME280;55182;56.864;60.554;2023-06-22T01:25:20;74320.66;;;-143.60;90.13
68329;BME280;55182;56.864;60.554;2023-06-22T01:30:19;74302.56;;;-143.60;90.09
68329;BME280;55182;56.864;60.554;2023-06-22T01:32:45;74282.47;;;-143.60;89.14
68329;BME280;55182;56.864;60.554;2023-06-22T01:35:11;74270.44;;;-143.60;88.39
68329;BME280;55182;56.864;60.554;2023-06-22T01:37:37;74250.34;;;-143.60;88.08
68329;BME280;55182;56.864;60.554;2023-06-22T01:40:03;74236.28;;;-143.60;87.26
68329;BME280;55182;56.864;60.554;2023-06-22T01:42:29;74226.25;;;-143.60;86.48
68329;BME280;55182;56.864;60.554;2023-06-22T01:44:55;74214.19;;;-143.60;85.85
68329;BME280;55182;56.864;60.554;2023-06-22T01:47:22;74210.19;;;-143.60;86.06
68329;BME280;55182;56.864;60.554;2023-06-22T01:49:47;74206.16;;;-143.60;85.73
68329;BME280;55182;56.864;60.554;2023-06-22T01:52:13;74198.13;;;-143.60;85.42
68329;BME280;55182;56.864;60.554;2023-06-22T01:54:39;74204.16;;;-143.60;85.31
68329;BME280;55182;56.864;60.554;2023-06-22T01:57:05;74208.16;;;-143.60;84.91
68329;BME280;55182;56.864;60.554;2023-06-22T02:02:10;74234.28;;;-143.60;85.99
68329;BME280;55182;56.864;60.554;2023-06-22T02:04:54;74244.31;;;-143.60;86.69
68329;BME280;55182;56.864;60.554;2023-06-22T02:07:20;74252.34;;;-143.60;86.81
68329;BME280;55182;56.864;60.554;2023-06-22T02:09:48;74246.31;;;-143.60;86.88
68329;BME280;55182;56.864;60.554;2023-06-22T02:12:17;74242.31;;;-143.60;86.69
68329;BME280;55182;56.864;60.554;2023-06-22T02:14:43;74230.25;;;-143.60;86.53
68329;BME280;55182;56.864;60.554;2023-06-22T02:17:09;74226.25;;;-143.60;86.58
68329;BME280;55182;56.864;60.554;2023-06-22T02:19:37;74230.25;;;-143.60;86.52
68329;BME280;55182;56.864;60.554;2023-06-22T02:22:03;74228.25;;;-143.60;86.83
68329;BME280;55182;56.864;60.554;2023-06-22T02:24:28;74230.25;;;-143.60;86.86
68329;BME280;55182;56.864;60.554;2023-06-22T02:26:54;74226.25;;;-143.60;87.25
68329;BME280;55182;56.864;60.554;2023-06-22T02:29:19;74208.16;;;-143.60;86.90
68329;BME280;55182;56.864;60.554;2023-06-22T02:31:45;74186.06;;;-143.60;86.22
68329;BME280;55182;56.864;60.554;2023-06-22T02:34:11;74159.97;;;-143.60;84.75
68329;BME280;55182;56.864;60.554;2023-06-22T02:36:36;74131.84;;;-143.60;83.79
68329;BME280;55182;56.864;60.554;2023-06-22T02:39:21;74121.81;;;-143.60;83.18
68329;BME280;55182;56.864;60.554;2023-06-22T02:41:49;74131.84;;;-143.60;83.95
68329;BME280;55182;56.864;60.554;2023-06-22T02:44:14;74137.88;;;-143.60;83.08
68329;BME280;55182;56.864;60.554;2023-06-22T02:46:40;74145.91;;;-143.60;83.90
68329;BME280;55182;56.864;60.554;2023-06-22T02:49:05;74137.88;;;-143.60;83.63
68329;BME280;55182;56.864;60.554;2023-06-22T02:51:32;74129.84;;;-143.60;83.32
68329;BME280;55182;56.864;60.554;2023-06-22T02:53:58;74123.81;;;-143.60;83.63
68329;BME280;55182;56.864;60.554;2023-06-22T02:56:28;74115.78;;;-143.60;82.71
68329;BME280;55182;56.864;60.554;2023-06-22T02:58:57;74087.66;;;-143.60;82.56
68329;BME280;55182;56.864;60.554;2023-06-22T03:01:23;74065.56;;;-143.60;81.82
68329;BME280;55182;56.864;60.554;2023-06-22T03:03:50;74043.47;;;-143.60;80.04
68329;BME280;55182;56.864;60.554;2023-06-22T03:06:16;74017.38;;;-143.60;79.75
68329;BME280;55182;56.864;60.554;2023-06-22T03:08:42;74007.31;;;-143.60;78.90
68329;BME280;55182;56.864;60.554;2023-06-22T03:11:07;74009.31;;;-143.60;78.51
68329;BME280;55182;56.864;60.554;2023-06-22T03:13:33;74011.34;;;-143.60;78.90
68329;BME280;55182;56.864;60.554;2023-06-22T03:15:59;74027.41;;;-143.60;78.67
68329;BME280;55182;56.864;60.554;2023-06-22T03:18:25;74025.41;;;-143.60;78.20
68329;BME280;55182;56.864;60.554;2023-06-22T03:20:51;74021.38;;;-143.60;78.28
68329;BME280;55182;56.864;60.554;2023-06-22T03:23:16;74019.38;;;-143.60;78.30
68329;BME280;55182;56.864;60.554;2023-06-22T03:25:42;74009.31;;;-143.60;77.16
68329;BME280;55182;56.864;60.554;2023-06-22T03:28:08;74019.38;;;-143.60;77.27
68329;BME280;55182;56.864;60.554;2023-06-22T03:30:34;74005.31;;;-143.60;76.34
68329;BME280;55182;56.864;60.554;2023-06-22T03:33:00;74011.34;;;-143.60;75.91
68329;BME280;55182;56.864;60.554;2023-06-22T03:35:25;73997.28;;;-143.60;74.40
68329;BME280;55182;56.864;60.554;2023-06-22T03:37:51;73993.25;;;-143.60;73.08
68329;BME280;55182;56.864;60.554;2023-06-22T03:40:16;73999.28;;;-143.60;72.17
68329;BME280;55182;56.864;60.554;2023-06-22T03:42:42;73993.25;;;-143.60;71.68
68329;BME280;55182;56.864;60.554;2023-06-22T03:45:08;73989.25;;;-143.60;70.89
68329;BME280;55182;56.864;60.554;2023-06-22T03:47:34;73965.16;;;-143.60;68.63
68329;BME280;55182;56.864;60.554;2023-06-22T03:49:59;73953.09;;;-143.60;67.65
68329;BME280;55182;56.864;60.554;2023-06-22T03:52:25;73941.03;;;-143.60;63.91
68329;BME280;55182;56.864;60.554;2023-06-22T03:54:50;73920.97;;;-143.60;61.26
68329;BME280;55182;56.864;60.554;2023-06-22T03:57:16;73892.84;;;-143.60;61.49
68329;BME280;55182;56.864;60.554;2023-06-22T03:59:41;73870.75;;;-143.60;61.00
68329;BME280;55182;56.864;60.554;2023-06-22T04:02:07;73862.72;;;-143.60;60.83
68329;BME280;55182;56.864;60.554;2023-06-22T04:04:32;73844.66;;;-143.60;60.54
68329;BME280;55182;56.864;60.554;2023-06-22T04:06:58;73840.63;;;-143.60;61.80
68329;BME280;55182;56.864;60.554;2023-06-22T04:09:23;73832.59;;;-143.60;60.61
68329;BME280;55182;56.864;60.554;2023-06-22T04:11:48;73826.56;;;-143.60;59.78
68329;BME280;55182;56.864;60.554;2023-06-22T04:14:14;73832.59;;;-143.60;59.73
68329;BME280;55182;56.864;60.554;2023-06-22T04:16:39;73818.53;;;-143.60;58.81
68329;BME280;55182;56.864;60.554;2023-06-22T04:19:05;73814.50;;;-143.60;58.46
68329;BME280;55182;56.864;60.554;2023-06-22T04:21:31;73812.50;;;-143.60;58.02
68329;BME280;55182;56.864;60.554;2023-06-22T04:23:56;73810.50;;;-143.60;58.79
68329;BME280;55182;56.864;60.554;2023-06-22T04:26:22;73806.47;;;-143.60;59.21
68329;BME280;55182;56.864;60.554;2023-06-22T04:28:47;73814.50;;;-143.60;58.35
68329;BME280;55182;56.864;60.554;2023-06-22T04:31:13;73824.56;;;-143.60;59.13
68329;BME280;55182;56.864;60.554;2023-06-22T04:33:38;73832.59;;;-143.60;59.26
68329;BME280;55182;56.864;60.554;2023-06-22T04:36:04;73836.59;;;-143.60;58.73
68329;BME280;55182;56.864;60.554;2023-06-22T04:38:29;73836.59;;;-143.60;58.89
68329;BME280;55182;56.864;60.554;2023-06-22T04:40:54;73818.53;;;-143.60;58.15
68329;BME280;55182;56.864;60.554;2023-06-22T04:43:20;73796.44;;;-143.60;59.27
68329;BME280;55182;56.864;60.554;2023-06-22T04:45:45;73776.34;;;-143.60;57.88
68329;BME280;55182;56.864;60.554;2023-06-22T04:48:11;73764.31;;;-143.60;57.61
68329;BME280;55182;56.864;60.554;2023-06-22T04:50:36;73742.22;;;-143.60;56.41
68329;BME280;55182;56.864;60.554;2023-06-22T04:53:02;73720.13;;;-143.60;53.49
68329;BME280;55182;56.864;60.554;2023-06-22T04:55:27;73700.03;;;-143.60;52.76
68329;BME280;55182;56.864;60.554;2023-06-22T04:57:52;73667.91;;;-143.60;53.24
68329;BME280;55182;56.864;60.554;2023-06-22T05:00:19;73631.75;;;-143.60;54.02
68329;BME280;55182;56.864;60.554;2023-06-22T05:02:45;73609.69;;;-143.60;53.14
68329;BME280;55182;56.864;60.554;2023-06-22T05:05:11;73589.59;;;-143.60;52.76
68329;BME280;55182;56.864;60.554;2023-06-22T05:07:36;73591.59;;;-143.60;52.98
68329;BME280;55182;56.864;60.554;2023-06-22T05:10:05;73607.66;;;-143.60;53.13
68329;BME280;55182;56.864;60.554;2023-06-22T05:12:30;73627.75;;;-143.60;52.79
68329;BME280;55182;56.864;60.554;2023-06-22T05:14:56;73643.81;;;-143.60;53.84
68329;BME280;55182;56.864;60.554;2023-06-22T05:17:21;73669.91;;;-143.60;53.49
68329;BME280;55182;56.864;60.554;2023-06-22T05:19:47;73683.97;;;-143.60;54.46
68329;BME280;55182;56.864;60.554;2023-06-22T05:22:12;73692.00;;;-143.60;54.47
68329;BME280;55182;56.864;60.554;2023-06-22T05:24:38;73692.00;;;-143.60;55.41
68329;BME280;55182;56.864;60.554;2023-06-22T05:27:03;73688.00;;;-143.60;55.49
68329;BME280;55182;56.864;60.554;2023-06-22T05:29:29;73667.91;;;-143.60;53.64
68329;BME280;55182;56.864;60.554;2023-06-22T05:31:54;73659.88;;;-143.60;53.22
68329;BME280;55182;56.864;60.554;2023-06-22T05:34:20;73667.91;;;-143.60;52.76
68329;BME280;55182;56.864;60.554;2023-06-22T05:36:45;73667.91;;;-143.60;52.93
68329;BME280;55182;56.864;60.554;2023-06-22T05:39:11;73673.94;;;-143.60;52.85
68329;BME280;55182;56.864;60.554;2023-06-22T05:41:37;73681.97;;;-143.60;52.26
68329;BME280;55182;56.864;60.554;2023-06-22T05:44:02;73700.03;;;-143.60;52.41
68329;BME280;55182;56.864;60.554;2023-06-22T05:46:28;73696.03;;;-143.60;53.54
68329;BME280;55182;56.864;60.554;2023-06-22T05:48:54;73679.97;;;-143.60;53.47
68329;BME280;55182;56.864;60.554;2023-06-22T05:51:19;73635.78;;;-143.60;52.09
68329;BME280;55182;56.864;60.554;2023-06-22T05:53:45;73599.63;;;-143.60;51.42
68329;BME280;55182;56.864;60.554;2023-06-22T05:56:10;73575.53;;;-143.60;50.95
68329;BME280;55182;56.864;60.554;2023-06-22T05:58:35;73555.44;;;-143.60;48.95
68329;BME280;55182;56.864;60.554;2023-06-22T06:01:01;73589.59;;;-143.60;48.38
68329;BME280;55182;56.864;60.554;2023-06-22T06:03:26;73597.63;;;-143.60;48.93
68329;BME280;55182;56.864;60.554;2023-06-22T06:05:52;73613.69;;;-143.60;49.47
68329;BME280;55182;56.864;60.554;2023-06-22T06:08:17;73631.75;;;-143.60;51.12
68329;BME280;55182;56.864;60.554;2023-06-22T06:10:43;73667.91;;;-143.60;51.76
68329;BME280;55182;56.864;60.554;2023-06-22T06:13:08;73679.97;;;-143.60;50.78
68329;BME280;55182;56.864;60.554;2023-06-22T06:15:33;73681.97;;;-143.60;50.92
68329;BME280;55182;56.864;60.554;2023-06-22T06:17:59;73671.94;;;-143.60;50.68
68329;BME280;55182;56.864;60.554;2023-06-22T06:20:25;73637.78;;;-143.60;50.74
68329;BME280;55182;56.864;60.554;2023-06-22T06:22:51;73601.63;;;-143.60;50.71
68329;BME280;55182;56.864;60.554;2023-06-22T06:25:16;73589.59;;;-143.60;49.61
68329;BME280;55182;56.864;60.554;2023-06-22T06:27:42;73585.56;;;-143.60;50.23
68329;BME280;55182;56.864;60.554;2023-06-22T06:30:08;73595.63;;;-143.60;50.91
68329;BME280;55182;56.864;60.554;2023-06-22T06:32:33;73595.63;;;-143.60;50.60
68329;BME280;55182;56.864;60.554;2023-06-22T06:35:01;73603.66;;;-143.60;51.22
68329;BME280;55182;56.864;60.554;2023-06-22T06:37:26;73611.69;;;-143.60;51.48
68329;BME280;55182;56.864;60.554;2023-06-22T06:39:51;73631.75;;;-143.60;51.93
68329;BME280;55182;56.864;60.554;2023-06-22T06:42:17;73637.78;;;-143.60;49.70
68329;BME280;55182;56.864;60.554;2023-06-22T06:44:43;73619.72;;;-143.60;48.96
68329;BME280;55182;56.864;60.554;2023-06-22T06:47:08;73615.69;;;-143.60;49.41
68329;BME280;55182;56.864;60.554;2023-06-22T06:49:34;73595.63;;;-143.60;50.43
68329;BME280;55182;56.864;60.554;2023-06-22T06:51:59;73559.47;;;-143.60;49.64
68329;BME280;55182;56.864;60.554;2023-06-22T06:54:24;73527.34;;;-143.60;50.39
68329;BME280;55182;56.864;60.554;2023-06-22T06:56:50;73519.31;;;-143.60;50.17
68329;BME280;55182;56.864;60.554;2023-06-22T06:59:15;73527.34;;;-143.60;48.38
68329;BME280;55182;56.864;60.554;2023-06-22T07:01:41;73525.31;;;-143.60;49.14
68329;BME280;55182;56.864;60.554;2023-06-22T07:04:07;73503.25;;;-143.60;49.15
68329;BME280;55182;56.864;60.554;2023-06-22T07:06:32;73471.09;;;-143.60;48.04
68329;BME280;55182;56.864;60.554;2023-06-22T07:08:58;73459.06;;;-143.60;48.76
68329;BME280;55182;56.864;60.554;2023-06-22T07:11:23;73463.06;;;-143.60;49.29
68329;BME280;55182;56.864;60.554;2023-06-22T07:13:49;73473.13;;;-143.60;49.83
68329;BME280;55182;56.864;60.554;2023-06-22T07:16:14;73485.16;;;-143.60;49.66
68329;BME280;55182;56.864;60.554;2023-06-22T07:18:40;73505.25;;;-143.60;49.29
68329;BME280;55182;56.864;60.554;2023-06-22T07:21:05;73519.31;;;-143.60;50.07
68329;BME280;55182;56.864;60.554;2023-06-22T07:23:31;73543.41;;;-143.60;50.02
68329;BME280;55182;56.864;60.554;2023-06-22T07:25:56;73543.41;;;-143.60;51.15
68329;BME280;55182;56.864;60.554;2023-06-22T07:28:22;73557.47;;;-143.60;50.65
68329;BME280;55182;56.864;60.554;2023-06-22T07:30:47;73543.41;;;-143.60;51.78
68329;BME280;55182;56.864;60.554;2023-06-22T07:33:13;73515.28;;;-143.60;50.65
68329;BME280;55182;56.864;60.554;2023-06-22T07:35:38;73483.16;;;-143.60;48.70
68329;BME280;55182;56.864;60.554;2023-06-22T07:38:04;73445.00;;;-143.60;47.79
68329;BME280;55182;56.864;60.554;2023-06-22T07:40:29;73416.88;;;-143.60;48.32
68329;BME280;55182;56.864;60.554;2023-06-22T07:42:55;73418.91;;;-143.60;47.47
68329;BME280;55182;56.864;60.554;2023-06-22T07:45:20;73443.00;;;-143.60;45.49
68329;BME280;55182;56.864;60.554;2023-06-22T07:47:45;73467.09;;;-143.60;46.65
68329;BME280;55182;56.864;60.554;2023-06-22T07:50:11;73479.13;;;-143.60;46.57
68329;BME280;55182;56.864;60.554;2023-06-22T07:52:36;73503.25;;;-143.60;47.55
68329;BME280;55182;56.864;60.554;2023-06-22T07:55:02;73523.31;;;-143.60;47.79
68329;BME280;55182;56.864;60.554;2023-06-22T07:57:28;73547.41;;;-143.60;47.78
68329;BME280;55182;56.864;60.554;2023-06-22T07:59:54;73559.47;;;-143.60;48.87
68329;BME280;55182;56.864;60.554;2023-06-22T08:02:19;73567.50;;;-143.60;49.56
68329;BME280;55182;56.864;60.554;2023-06-22T08:04:45;73547.41;;;-143.60;50.45
68329;BME280;55182;56.864;60.554;2023-06-22T08:07:10;73519.31;;;-143.60;48.73
68329;BME280;55182;56.864;60.554;2023-06-22T08:09:36;73459.06;;;-143.60;48.81
68329;BME280;55182;56.864;60.554;2023-06-22T08:12:01;73412.88;;;-143.60;46.93
68329;BME280;55182;56.864;60.554;2023-06-22T08:14:27;73382.75;;;-143.60;47.01
68329;BME280;55182;56.864;60.554;2023-06-22T08:16:52;73354.63;;;-143.60;45.86
68329;BME280;55182;56.864;60.554;2023-06-22T08:19:18;73370.69;;;-143.60;45.32
68329;BME280;55182;56.864;60.554;2023-06-22T08:21:43;73402.84;;;-143.60;45.68
68329;BME280;55182;56.864;60.554;2023-06-22T08:24:09;73426.94;;;-143.60;46.45
68329;BME280;55182;56.864;60.554;2023-06-22T08:26:34;73447.00;;;-143.60;46.61
68329;BME280;55182;56.864;60.554;2023-06-22T08:29:00;73459.06;;;-143.60;46.74
68329;BME280;55182;56.864;60.554;2023-06-22T08:31:25;73438.97;;;-143.60;47.50
68329;BME280;55182;56.864;60.554;2023-06-22T08:33:50;73443.00;;;-143.60;47.53
68329;BME280;55182;56.864;60.554;2023-06-22T08:36:16;73443.00;;;-143.60;46.71
68329;BME280;55182;56.864;60.554;2023-06-22T08:38:41;73445.00;;;-143.60;47.60
68329;BME280;55182;56.864;60.554;2023-06-22T08:41:07;73434.97;;;-143.60;46.57
68329;BME280;55182;56.864;60.554;2023-06-22T08:43:32;73441.00;;;-143.60;44.62
68329;BME280;55182;56.864;60.554;2023-06-22T08:45:58;73430.94;;;-143.60;45.15
68329;BME280;55182;56.864;60.554;2023-06-22T08:48:23;73418.91;;;-143.60;45.02
68329;BME280;55182;56.864;60.554;2023-06-22T08:50:48;73414.88;;;-143.60;45.21
68329;BME280;55182;56.864;60.554;2023-06-22T08:53:14;73402.84;;;-143.60;44.30
68329;BME280;55182;56.864;60.554;2023-06-22T08:55:40;73390.78;;;-143.60;43.99
68329;BME280;55182;56.864;60.554;2023-06-22T08:58:05;73398.81;;;-143.60;45.18
68329;BME280;55182;56.864;60.554;2023-06-22T09:00:31;73402.84;;;-143.60;43.95
68329;BME280;55182;56.864;60.554;2023-06-22T09:02:56;73408.84;;;-143.60;44.37
68329;BME280;55182;56.864;60.554;2023-06-22T09:05:21;73402.84;;;-143.60;44.57
68329;BME280;55182;56.864;60.554;2023-06-22T09:07:47;73414.88;;;-143.60;44.97
68329;BME280;55182;56.864;60.554;2023-06-22T09:10:12;73382.75;;;-143.60;44.62
68329;BME280;55182;56.864;60.554;2023-06-22T09:12:38;73350.63;;;-143.60;43.62
68329;BME280;55182;56.864;60.554;2023-06-22T09:15:04;73346.59;;;-143.60;43.49
68329;BME280;55182;56.864;60.554;2023-06-22T09:17:30;73366.69;;;-143.60;44.87
68329;BME280;55182;56.864;60.554;2023-06-22T09:19:55;73372.72;;;-143.60;45.37
68329;BME280;55182;56.864;60.554;2023-06-22T09:22:21;73394.81;;;-143.60;45.13
68329;BME280;55182;56.864;60.554;2023-06-22T09:24:46;73422.91;;;-143.60;45.80
68329;BME280;55182;56.864;60.554;2023-06-22T09:27:12;73426.94;;;-143.60;46.74
68329;BME280;55182;56.864;60.554;2023-06-22T09:29:37;73426.94;;;-143.60;46.27
68329;BME280;55182;56.864;60.554;2023-06-22T09:32:03;73418.91;;;-143.60;46.42
68329;BME280;55182;56.864;60.554;2023-06-22T09:34:28;73406.84;;;-143.60;45.83
68329;BME280;55182;56.864;60.554;2023-06-22T09:36:54;73402.84;;;-143.60;45.80
68329;BME280;55182;56.864;60.554;2023-06-22T09:39:19;73402.84;;;-143.60;45.30
68329;BME280;55182;56.864;60.554;2023-06-22T09:41:44;73422.91;;;-143.60;45.00
68329;BME280;55182;56.864;60.554;2023-06-22T09:44:10;73430.94;;;-143.60;45.56
68329;BME280;55182;56.864;60.554;2023-06-22T09:46:35;73441.00;;;-143.60;46.27
68329;BME280;55182;56.864;60.554;2023-06-22T09:49:01;73438.97;;;-143.60;45.74
68329;BME280;55182;56.864;60.554;2023-06-22T09:51:26;73443.00;;;-143.60;45.54
68329;BME280;55182;56.864;60.554;2023-06-22T09:53:52;73443.00;;;-143.60;45.85
68329;BME280;55182;56.864;60.554;2023-06-22T09:56:18;73453.03;;;-143.60;45.82
68329;BME280;55182;56.864;60.554;2023-06-22T09:58:43;73451.03;;;-143.60;46.07
68329;BME280;55182;56.864;60.554;2023-06-22T10:01:09;73457.06;;;-143.60;45.89
68329;BME280;55182;56.864;60.554;2023-06-22T10:03:35;73459.06;;;-143.60;46.42
68329;BME280;55182;56.864;60.554;2023-06-22T10:06:01;73459.06;;;-143.60;45.71
68329;BME280;55182;56.864;60.554;2023-06-22T10:08:26;73457.06;;;-143.60;46.03
68329;BME280;55182;56.864;60.554;2023-06-22T10:10:52;73461.06;;;-143.60;45.80
68329;BME280;55182;56.864;60.554;2023-06-22T10:13:17;73451.03;;;-143.60;45.90
68329;BME280;55182;56.864;60.554;2023-06-22T10:15:42;73451.03;;;-143.60;45.75
68329;BME280;55182;56.864;60.554;2023-06-22T10:18:08;73443.00;;;-143.60;45.52
68329;BME280;55182;56.864;60.554;2023-06-22T10:20:33;73430.94;;;-143.60;45.40
68329;BME280;55182;56.864;60.554;2023-06-22T10:22:59;73420.91;;;-143.60;45.30
68329;BME280;55182;56.864;60.554;2023-06-22T10:25:24;73410.88;;;-143.60;46.43
68329;BME280;55182;56.864;60.554;2023-06-22T10:27:50;73404.84;;;-143.60;45.50
68329;BME280;55182;56.864;60.554;2023-06-22T10:30:16;73402.84;;;-143.60;45.29
68329;BME280;55182;56.864;60.554;2023-06-22T10:32:41;73394.81;;;-143.60;45.79
68329;BME280;55182;56.864;60.554;2023-06-22T10:35:08;73378.75;;;-143.60;45.45
68329;BME280;55182;56.864;60.554;2023-06-22T10:37:33;73350.63;;;-143.60;45.38
68329;BME280;55182;56.864;60.554;2023-06-22T10:39:59;73342.59;;;-143.60;43.57
68329;BME280;55182;56.864;60.554;2023-06-22T10:42:24;73358.66;;;-143.60;43.60
68329;BME280;55182;56.864;60.554;2023-06-22T10:44:50;73382.75;;;-143.60;44.03
68329;BME280;55182;56.864;60.554;2023-06-22T10:47:15;73386.78;;;-143.60;44.49
68329;BME280;55182;56.864;60.554;2023-06-22T10:49:41;73350.63;;;-143.60;43.95
68329;BME280;55182;56.864;60.554;2023-06-22T10:52:07;73286.38;;;-143.60;42.98
68329;BME280;55182;56.864;60.554;2023-06-22T10:54:33;73210.06;;;-143.60;41.51
68329;BME280;55182;56.864;60.554;2023-06-22T10:56:59;73189.97;;;-143.60;41.95
68329;BME280;55182;56.864;60.554;2023-06-22T10:59:25;73202.03;;;-143.60;42.21
68329;BME280;55182;56.864;60.554;2023-06-22T11:01:50;73224.13;;;-143.60;42.28
68329;BME280;55182;56.864;60.554;2023-06-22T11:04:15;73242.19;;;-143.60;42.30
68329;BME280;55182;56.864;60.554;2023-06-22T11:06:41;73268.28;;;-143.60;42.15
68329;BME280;55182;56.864;60.554;2023-06-22T11:09:06;73290.38;;;-143.60;41.79
68329;BME280;55182;56.864;60.554;2023-06-22T11:11:32;73310.47;;;-143.60;42.59
68329;BME280;55182;56.864;60.554;2023-06-22T11:13:57;73338.56;;;-143.60;43.59
68329;BME280;55182;56.864;60.554;2023-06-22T11:16:23;73354.63;;;-143.60;43.36
68329;BME280;55182;56.864;60.554;2023-06-22T11:18:48;73370.69;;;-143.60;43.58
68329;BME280;55182;56.864;60.554;2023-06-22T11:21:13;73382.75;;;-143.60;44.38
68329;BME280;55182;56.864;60.554;2023-06-22T11:23:39;73398.81;;;-143.60;44.03
68329;BME280;55182;56.864;60.554;2023-06-22T11:26:04;73418.91;;;-143.60;44.64
68329;BME280;55182;56.864;60.554;2023-06-22T11:28:30;73434.97;;;-143.60;44.11
68329;BME280;55182;56.864;60.554;2023-06-22T11:30:55;73459.06;;;-143.60;44.97
68329;BME280;55182;56.864;60.554;2023-06-22T11:33:21;73477.13;;;-143.60;46.00
68329;BME280;55182;56.864;60.554;2023-06-22T11:35:46;73501.22;;;-143.60;46.83
68329;BME280;55182;56.864;60.554;2023-06-22T11:38:11;73515.28;;;-143.60;47.50
68329;BME280;55182;56.864;60.554;2023-06-22T11:40:37;73529.34;;;-143.60;48.43
68329;BME280;55182;56.864;60.554;2023-06-22T11:43:02;73545.41;;;-143.60;48.73
68329;BME280;55182;56.864;60.554;2023-06-22T11:45:28;73559.47;;;-143.60;49.66
68329;BME280;55182;56.864;60.554;2023-06-22T11:47:53;73559.47;;;-143.60;50.29
68329;BME280;55182;56.864;60.554;2023-06-22T11:50:18;73555.44;;;-143.60;50.17
68329;BME280;55182;56.864;60.554;2023-06-22T11:52:44;73547.41;;;-143.60;49.62
68329;BME280;55182;56.864;60.554;2023-06-22T11:55:09;73521.31;;;-143.60;49.59
68329;BME280;55182;56.864;60.554;2023-06-22T11:57:35;73461.06;;;-143.60;49.07
68329;BME280;55182;56.864;60.554;2023-06-22T12:00:01;73292.38;;;-143.60;47.05
68329;BME280;55182;56.864;60.554;2023-06-22T12:02:32;73103.63;;;-143.60;44.14
68329;BME280;55182;56.864;60.554;2023-06-22T12:04:57;72989.19;;;-143.60;42.61
68329;BME280;55182;56.864;60.554;2023-06-22T12:07:23;72876.75;;;-143.60;41.33
68329;BME280;55182;56.864;60.554;2023-06-22T12:09:48;72778.38;;;-143.60;40.01
68329;BME280;55182;56.864;60.554;2023-06-22T12:12:14;72720.13;;;-143.60;38.42
68329;BME280;55182;56.864;60.554;2023-06-22T12:14:39;72667.94;;;-143.60;36.83
68329;BME280;55182;56.864;60.554;2023-06-22T12:17:05;72595.66;;;-143.60;36.53
68329;BME280;55182;56.864;60.554;2023-06-22T12:19:30;72527.41;;;-143.60;35.38
68329;BME280;55182;56.864;60.554;2023-06-22T12:21:56;72451.09;;;-143.60;34.03
68329;BME280;55182;56.864;60.554;2023-06-22T12:24:21;72382.84;;;-143.60;34.59
68329;BME280;55182;56.864;60.554;2023-06-22T12:26:47;72380.84;;;-143.60;34.00
68329;BME280;55182;56.864;60.554;2023-06-22T12:29:12;72423.00;;;-143.60;33.69